Time;durP1;ratioP1;P1;durP2;ratioP2;P2;SDS_P1;SDS_P2;PMS_P1;PMS_P2;Temp;Humidity;BMP_temperature;BMP_pressure;BME280_temperature;BME280_humidity;BME280_pressure;Samples;Min_cycle;Max_cycle;Signal;HPM_P1;HPM_P2
2021/08/15 00:00:49;;;;;;;9.60;8.27;;;21.70;99.90;;;;;;5070000;28;20634;-60
2021/08/15 00:03:16;;;;;;;9.95;8.00;;;21.70;99.90;;;;;;5070133;28;20236;-60
2021/08/15 00:05:43;;;;;;;9.25;8.30;;;21.70;99.90;;;;;;5069812;28;20719;-60
2021/08/15 00:08:11;;;;;;;11.98;8.60;;;21.80;99.90;;;;;;5070084;28;20235;-60
2021/08/15 00:10:38;;;;;;;9.35;8.45;;;21.70;99.90;;;;;;5070056;28;20231;-60
2021/08/15 00:13:06;;;;;;;12.55;8.43;;;21.70;99.90;;;;;;5070372;28;20300;-60
2021/08/15 00:15:33;;;;;;;10.88;8.25;;;21.60;99.90;;;;;;5070078;28;20209;-59
2021/08/15 00:18:00;;;;;;;9.30;8.30;;;21.60;99.90;;;;;;5070002;28;20209;-60
2021/08/15 00:20:27;;;;;;;9.48;8.48;;;21.60;99.90;;;;;;5070727;28;20275;-60
2021/08/15 00:22:54;;;;;;;9.80;8.05;;;21.50;99.90;;;;;;5073846;28;20273;-60
2021/08/15 00:25:22;;;;;;;8.75;7.93;;;21.50;99.90;;;;;;5073502;28;20659;-60
2021/08/15 00:27:49;;;;;;;13.20;8.50;;;21.50;99.90;;;;;;5073749;28;20205;-59
2021/08/15 00:30:17;;;;;;;9.82;8.15;;;21.40;99.90;;;;;;5073441;28;20672;-61
2021/08/15 00:32:44;;;;;;;10.23;8.90;;;21.40;99.90;;;;;;5073357;28;20208;-60
2021/08/15 00:35:12;;;;;;;9.23;8.07;;;21.30;99.90;;;;;;5072926;28;20612;-60
2021/08/15 00:37:38;;;;;;;8.50;7.70;;;21.10;99.90;;;;;;5073317;28;20208;-61
2021/08/15 00:40:07;;;;;;;11.52;8.43;;;21.10;99.90;;;;;;5073244;28;20232;-60
2021/08/15 00:42:35;;;;;;;12.52;8.65;;;21.00;99.90;;;;;;5073240;28;20219;-59
2021/08/15 00:45:02;;;;;;;11.43;8.45;;;20.90;99.90;;;;;;5072898;28;20236;-60
2021/08/15 00:47:30;;;;;;;9.55;8.55;;;20.80;99.90;;;;;;5072861;28;20212;-61
2021/08/15 00:49:59;;;;;;;10.10;8.40;;;20.80;99.90;;;;;;5073192;28;20228;-60
2021/08/15 00:52:25;;;;;;;9.25;8.27;;;20.80;99.90;;;;;;5073116;28;20209;-60
2021/08/15 00:54:52;;;;;;;13.90;8.82;;;20.80;99.90;;;;;;5072906;28;20228;-60
2021/08/15 00:57:19;;;;;;;10.40;8.55;;;20.80;99.90;;;;;;5072825;28;20622;-60
2021/08/15 00:59:47;;;;;;;11.82;8.60;;;20.80;99.90;;;;;;5072577;28;20270;-61
2021/08/15 01:02:14;;;;;;;10.45;8.40;;;20.80;99.90;;;;;;5072831;28;20664;-61
2021/08/15 01:04:41;;;;;;;11.63;8.65;;;20.70;99.90;;;;;;5072885;28;20286;-61
2021/08/15 01:07:08;;;;;;;14.40;8.20;;;20.70;99.90;;;;;;5072797;28;20258;-60
2021/08/15 01:09:35;;;;;;;13.27;9.02;;;20.70;99.90;;;;;;5072486;28;20616;-61
2021/08/15 01:12:03;;;;;;;13.85;8.98;;;20.70;99.90;;;;;;5072549;28;20238;-60
2021/08/15 01:14:30;;;;;;;11.93;9.15;;;20.70;99.90;;;;;;5072204;28;20229;-60
2021/08/15 01:16:58;;;;;;;11.27;8.60;;;20.70;99.90;;;;;;5072632;28;20577;-60
2021/08/15 01:19:30;;;;;;;9.55;8.55;;;20.70;99.90;;;;;;5072653;28;20755;-60
2021/08/15 01:21:58;;;;;;;11.45;8.82;;;20.70;99.90;;;;;;5072842;28;20200;-60
2021/08/15 01:24:25;;;;;;;12.68;8.75;;;20.70;99.90;;;;;;5072477;28;20716;-61
2021/08/15 01:26:52;;;;;;;10.57;7.88;;;20.70;99.90;;;;;;5072345;28;20221;-61
2021/08/15 01:29:22;;;;;;;10.00;8.57;;;20.70;99.90;;;;;;5072429;28;20208;-60
2021/08/15 01:31:50;;;;;;;12.02;9.25;;;20.70;99.90;;;;;;5072542;28;20201;-60
2021/08/15 01:34:16;;;;;;;12.07;9.40;;;20.60;99.90;;;;;;5072086;28;20695;-60
2021/08/15 01:36:43;;;;;;;9.80;8.75;;;20.70;99.90;;;;;;5072211;28;20212;-61
2021/08/15 01:39:10;;;;;;;10.85;8.75;;;20.60;99.90;;;;;;5071905;28;20221;-61
2021/08/15 01:41:36;;;;;;;9.13;8.23;;;20.60;99.90;;;;;;5071876;28;20209;-60
2021/08/15 01:44:04;;;;;;;10.65;9.10;;;20.70;99.90;;;;;;5071764;28;20286;-59
2021/08/15 01:46:33;;;;;;;11.55;8.68;;;20.70;99.90;;;;;;5072079;28;20319;-60
2021/08/15 01:49:02;;;;;;;10.75;8.25;;;20.70;99.90;;;;;;5071718;28;20208;-61
2021/08/15 01:51:29;;;;;;;9.45;8.45;;;20.70;99.90;;;;;;5071759;28;20630;-61
2021/08/15 01:53:57;;;;;;;10.23;8.18;;;20.60;99.90;;;;;;5071428;28;20225;-62
2021/08/15 01:56:24;;;;;;;10.82;8.43;;;20.60;99.90;;;;;;5071824;28;20208;-61
2021/08/15 01:58:51;;;;;;;13.98;9.20;;;20.50;99.90;;;;;;5071540;28;20750;-61
2021/08/15 02:01:18;;;;;;;11.57;9.07;;;20.60;99.90;;;;;;5071700;28;20212;-61
2021/08/15 02:03:48;;;;;;;11.13;9.05;;;20.50;99.90;;;;;;5071446;28;20233;-60
2021/08/15 02:06:16;;;;;;;12.23;8.85;;;20.40;99.90;;;;;;5071732;28;20213;-60
2021/08/15 02:08:43;;;;;;;10.77;8.82;;;20.40;99.90;;;;;;5071500;28;20209;-60
2021/08/15 02:11:09;;;;;;;9.95;8.95;;;20.40;99.90;;;;;;5071515;28;20208;-61
2021/08/15 02:13:36;;;;;;;10.68;8.93;;;20.40;99.90;;;;;;5071299;28;20225;-61
2021/08/15 02:16:03;;;;;;;12.75;8.82;;;20.40;99.90;;;;;;5071604;28;20204;-60
2021/08/15 02:18:29;;;;;;;12.25;8.98;;;20.40;99.90;;;;;;5071223;28;20205;-61
2021/08/15 02:20:58;;;;;;;11.00;8.27;;;20.40;99.90;;;;;;5071179;28;20213;-61
2021/08/15 02:23:24;;;;;;;11.05;9.07;;;20.40;99.90;;;;;;5071091;28;20652;-61
2021/08/15 02:25:53;;;;;;;9.20;8.30;;;20.40;99.90;;;;;;5071315;28;20208;-60
2021/08/15 02:28:20;;;;;;;10.85;9.25;;;20.40;99.90;;;;;;5071179;28;20311;-60
2021/08/15 02:30:46;;;;;;;9.98;8.00;;;20.40;99.90;;;;;;5071241;28;20204;-60
2021/08/15 02:33:13;;;;;;;9.95;8.95;;;20.40;99.90;;;;;;5070854;28;20232;-60
2021/08/15 02:35:40;;;;;;;9.93;8.90;;;20.40;99.90;;;;;;5070919;28;20623;-60
2021/08/15 02:38:08;;;;;;;11.05;8.48;;;20.40;99.90;;;;;;5071149;28;20209;-61
2021/08/15 02:40:35;;;;;;;12.27;8.27;;;20.40;99.90;;;;;;5071356;28;20228;-60
2021/08/15 02:43:01;;;;;;;10.60;9.48;;;20.40;99.90;;;;;;5071021;28;20211;-60
2021/08/15 02:45:28;;;;;;;14.70;9.38;;;20.40;99.90;;;;;;5070935;28;20864;-59
2021/08/15 02:47:55;;;;;;;12.18;9.05;;;20.40;99.90;;;;;;5070836;28;20205;-61
2021/08/15 02:50:23;;;;;;;10.40;9.10;;;20.40;99.90;;;;;;5071053;28;20201;-60
2021/08/15 02:52:50;;;;;;;11.43;8.63;;;20.40;99.90;;;;;;5071124;28;20267;-61
2021/08/15 02:55:18;;;;;;;11.63;8.43;;;20.30;99.90;;;;;;5070783;28;20205;-62
2021/08/15 02:57:45;;;;;;;9.57;8.32;;;20.30;99.90;;;;;;5071152;28;20201;-60
2021/08/15 03:00:12;;;;;;;9.43;8.45;;;20.20;99.90;;;;;;5071172;28;20225;-61
2021/08/15 03:02:40;;;;;;;11.48;8.77;;;20.20;99.90;;;;;;5070602;28;20684;-61
2021/08/15 03:05:08;;;;;;;9.63;8.32;;;20.20;99.90;;;;;;5070792;28;20225;-60
2021/08/15 03:07:35;;;;;;;14.40;9.27;;;20.20;99.90;;;;;;5070811;28;20221;-60
2021/08/15 03:10:01;;;;;;;10.27;8.65;;;20.10;99.90;;;;;;5070682;28;20205;-60
2021/08/15 03:12:29;;;;;;;10.40;9.00;;;20.00;99.90;;;;;;5070962;28;20224;-60
2021/08/15 03:14:56;;;;;;;12.25;9.30;;;20.00;99.90;;;;;;5070348;28;20227;-61
2021/08/15 03:17:23;;;;;;;11.52;9.30;;;20.00;99.90;;;;;;5070495;28;20333;-60
2021/08/15 03:19:49;;;;;;;11.65;8.98;;;20.00;99.90;;;;;;5070580;28;20643;-61
2021/08/15 03:22:16;;;;;;;11.10;9.52;;;20.00;99.90;;;;;;5070684;28;20216;-60
2021/08/15 03:24:43;;;;;;;13.57;9.43;;;20.00;99.90;;;;;;5070422;28;20229;-61
2021/08/15 03:27:09;;;;;;;9.82;8.80;;;19.90;99.90;;;;;;5070493;28;20239;-59
2021/08/15 03:29:37;;;;;;;9.73;8.55;;;19.90;99.90;;;;;;5070213;28;20212;-59
2021/08/15 03:32:05;;;;;;;12.38;9.07;;;19.90;99.90;;;;;;5070721;28;20661;-60
2021/08/15 03:34:32;;;;;;;12.77;8.95;;;19.80;99.90;;;;;;5070605;28;20716;-60
2021/08/15 03:36:59;;;;;;;11.15;9.15;;;19.90;99.90;;;;;;5070496;28;20205;-61
2021/08/15 03:39:29;;;;;;;10.65;9.60;;;19.80;99.90;;;;;;5070363;28;20255;-59
2021/08/15 03:41:58;;;;;;;14.10;8.98;;;19.80;99.90;;;;;;5070437;28;20214;-60
2021/08/15 03:44:26;;;;;;;9.93;8.93;;;19.80;99.90;;;;;;5070122;28;20256;-59
2021/08/15 03:46:54;;;;;;;11.02;9.48;;;19.80;99.90;;;;;;5070674;28;20239;-59
2021/08/15 03:49:21;;;;;;;10.40;8.80;;;19.80;99.90;;;;;;5070394;28;20296;-59
2021/08/15 03:51:48;;;;;;;10.52;8.65;;;19.70;99.90;;;;;;5070464;28;20211;-61
2021/08/15 03:54:17;;;;;;;16.20;9.85;;;19.80;99.90;;;;;;5070446;28;20229;-60
2021/08/15 03:56:43;;;;;;;11.15;9.88;;;19.70;99.90;;;;;;5073063;28;20542;-60
2021/08/15 03:59:10;;;;;;;10.70;9.60;;;19.60;99.90;;;;;;5073992;28;20600;-61
2021/08/15 04:01:37;;;;;;;15.55;9.50;;;19.60;99.90;;;;;;5074561;28;20205;-60
2021/08/15 04:04:05;;;;;;;10.30;9.07;;;19.60;99.90;;;;;;5074006;28;20257;-60
2021/08/15 04:06:33;;;;;;;11.30;10.10;;;19.60;99.90;;;;;;5074226;28;20216;-60
2021/08/15 04:09:01;;;;;;;10.40;9.00;;;19.50;99.90;;;;;;5073823;28;20227;-61
2021/08/15 04:11:28;;;;;;;15.40;9.60;;;19.50;99.90;;;;;;5073730;28;20216;-60
2021/08/15 04:13:54;;;;;;;15.18;9.95;;;19.50;99.90;;;;;;5073585;28;20229;-62
2021/08/15 04:16:21;;;;;;;11.18;9.45;;;19.50;99.90;;;;;;5073631;28;20677;-61
2021/08/15 04:18:48;;;;;;;11.32;9.45;;;19.50;99.90;;;;;;5073526;28;20598;-60
2021/08/15 04:21:16;;;;;;;10.93;9.82;;;19.40;99.90;;;;;;5073586;28;20233;-61
2021/08/15 04:23:42;;;;;;;10.98;9.25;;;19.50;99.90;;;;;;5073297;28;20221;-60
2021/08/15 04:26:09;;;;;;;10.63;9.52;;;19.50;99.90;;;;;;5073287;28;20219;-61
2021/08/15 04:28:36;;;;;;;11.32;9.55;;;19.50;99.90;;;;;;5073488;28;20211;-61
2021/08/15 04:31:02;;;;;;;17.52;10.10;;;19.40;99.90;;;;;;5073377;28;20208;-61
2021/08/15 04:33:29;;;;;;;11.48;9.10;;;19.50;99.90;;;;;;5073116;28;20240;-61
2021/08/15 04:35:56;;;;;;;10.45;9.38;;;19.50;99.90;;;;;;5073322;28;20209;-60
2021/08/15 04:38:25;;;;;;;10.88;9.02;;;19.50;99.90;;;;;;5072934;28;20212;-60
2021/08/15 04:40:51;;;;;;;12.50;9.27;;;19.50;99.90;;;;;;5073154;28;20272;-61
2021/08/15 04:43:18;;;;;;;11.63;9.48;;;19.50;99.90;;;;;;5073455;28;20597;-61
2021/08/15 04:45:46;;;;;;;11.27;9.10;;;19.60;99.90;;;;;;5073183;28;20201;-61
2021/08/15 04:48:13;;;;;;;11.95;9.85;;;19.70;99.90;;;;;;5073077;28;20205;-61
2021/08/15 04:50:40;;;;;;;11.50;9.43;;;19.70;99.90;;;;;;5073020;28;20208;-62
2021/08/15 04:53:07;;;;;;;12.88;10.45;;;19.80;99.90;;;;;;5072690;28;20231;-61
2021/08/15 04:55:35;;;;;;;11.45;10.25;;;19.80;99.90;;;;;;5073067;28;20209;-61
2021/08/15 04:58:02;;;;;;;11.45;9.65;;;19.90;99.90;;;;;;5072939;28;20581;-60
2021/08/15 05:00:29;;;;;;;11.38;9.73;;;19.90;99.90;;;;;;5072801;28;20322;-61
2021/08/15 05:02:55;;;;;;;12.07;9.95;;;20.10;99.90;;;;;;5073092;28;20209;-61
2021/08/15 05:05:22;;;;;;;12.23;9.70;;;20.10;99.90;;;;;;5073108;28;20216;-60
2021/08/15 05:07:49;;;;;;;14.52;8.98;;;20.20;99.90;;;;;;5072378;28;20201;-60
2021/08/15 05:10:16;;;;;;;11.88;9.15;;;20.30;99.90;;;;;;5072929;28;20569;-61
2021/08/15 05:12:44;;;;;;;12.25;9.35;;;20.40;99.90;;;;;;5073052;28;20471;-61
2021/08/15 05:15:11;;;;;;;12.68;9.57;;;20.40;99.90;;;;;;5072668;28;20232;-62
2021/08/15 05:17:38;;;;;;;12.88;10.00;;;20.50;99.90;;;;;;5072627;28;20204;-61
2021/08/15 05:20:06;;;;;;;11.57;9.55;;;20.60;99.90;;;;;;5072565;28;20224;-60
2021/08/15 05:22:33;;;;;;;12.48;9.82;;;20.70;99.90;;;;;;5072425;28;20204;-60
2021/08/15 05:24:59;;;;;;;12.60;9.57;;;20.70;99.90;;;;;;5072453;28;20232;-61
2021/08/15 05:27:26;;;;;;;11.40;8.73;;;20.80;99.90;;;;;;5072905;28;20262;-61
2021/08/15 05:29:54;;;;;;;13.38;8.52;;;21.00;99.90;;;;;;5072287;28;20210;-60
2021/08/15 05:32:21;;;;;;;10.15;9.13;;;21.20;99.90;;;;;;5072387;28;20733;-61
2021/08/15 05:34:47;;;;;;;12.13;8.68;;;21.30;99.90;;;;;;5071879;28;20232;-61
2021/08/15 05:37:14;;;;;;;11.65;9.18;;;21.50;99.90;;;;;;5072384;28;20263;-61
2021/08/15 05:39:41;;;;;;;13.80;8.60;;;21.50;99.90;;;;;;5072109;28;20209;-60
2021/08/15 05:42:08;;;;;;;9.82;8.32;;;21.40;99.90;;;;;;5072259;28;20216;-62
2021/08/15 05:44:34;;;;;;;10.27;8.25;;;21.50;99.90;;;;;;5072015;28;20233;-60
2021/08/15 05:47:04;;;;;;;11.48;8.00;;;22.10;99.90;;;;;;5071899;28;20208;-61
2021/08/15 05:49:31;;;;;;;12.98;8.02;;;23.00;99.90;;;;;;5071795;28;20209;-59
2021/08/15 05:51:57;;;;;;;8.30;7.28;;;24.30;99.90;;;;;;5072033;28;20209;-60
2021/08/15 05:54:24;;;;;;;9.57;7.40;;;25.20;99.90;;;;;;5071829;28;20232;-60
2021/08/15 05:56:51;;;;;;;10.43;7.00;;;26.30;99.90;;;;;;5071819;28;20200;-60
2021/08/15 05:59:17;;;;;;;7.38;6.63;;;27.70;99.90;;;;;;5072097;28;20205;-61
2021/08/15 06:01:44;;;;;;;11.13;6.78;;;29.20;99.90;;;;;;5071619;28;20225;-60
2021/08/15 06:04:12;;;;;;;7.03;6.32;;;30.70;99.90;;;;;;5071378;28;20228;-60
2021/08/15 06:06:39;;;;;;;9.65;7.22;;;31.80;99.90;;;;;;5071498;28;20575;-61
2021/08/15 06:09:05;;;;;;;7.63;6.25;;;32.10;99.90;;;;;;5071583;28;20209;-60
2021/08/15 06:11:32;;;;;;;8.52;6.40;;;32.50;99.90;;;;;;5071664;28;20284;-61
2021/08/15 06:13:59;;;;;;;7.65;6.72;;;33.30;99.90;;;;;;5071482;28;20302;-61
2021/08/15 06:16:26;;;;;;;9.30;6.53;;;34.20;99.70;;;;;;5071400;28;20661;-61
2021/08/15 06:18:52;;;;;;;7.63;6.38;;;34.90;97.00;;;;;;5070528;28;20712;-61
2021/08/15 06:21:20;;;;;;;7.47;6.70;;;35.70;94.10;;;;;;5071240;28;20758;-61
2021/08/15 06:23:48;;;;;;;7.18;5.65;;;36.40;91.80;;;;;;5071578;28;20571;-59
2021/08/15 06:26:14;;;;;;;8.45;6.30;;;36.90;86.30;;;;;;5071368;28;20208;-61
2021/08/15 06:28:41;;;;;;;10.15;6.53;;;36.90;83.00;;;;;;5071080;28;20219;-60
2021/08/15 06:31:08;;;;;;;9.57;6.80;;;36.00;84.90;;;;;;5071073;28;20250;-62
2021/08/15 06:33:35;;;;;;;9.73;6.68;;;34.90;88.00;;;;;;5070985;28;20622;-62
2021/08/15 06:36:01;;;;;;;8.27;6.15;;;34.70;89.10;;;;;;5071349;28;20234;-62
2021/08/15 06:38:29;;;;;;;6.95;6.15;;;35.20;87.50;;;;;;5071147;28;20258;-62
2021/08/15 06:40:57;;;;;;;8.18;6.40;;;36.20;83.70;;;;;;5070970;28;20232;-62
2021/08/15 06:43:24;;;;;;;13.15;6.90;;;37.10;81.60;;;;;;5070834;28;20602;-62
2021/08/15 06:45:51;;;;;;;8.55;6.25;;;37.60;77.70;;;;;;5071062;28;20404;-62
2021/08/15 06:48:17;;;;;;;11.77;7.10;;;36.70;78.30;;;;;;5071363;28;20209;-62
2021/08/15 06:50:44;;;;;;;8.90;7.05;;;35.60;82.00;;;;;;5071234;28;20208;-62
2021/08/15 06:53:11;;;;;;;7.18;6.30;;;35.90;81.60;;;;;;5071083;28;20278;-61
2021/08/15 06:55:39;;;;;;;9.98;7.05;;;35.90;80.50;;;;;;5070932;28;20205;-62
2021/08/15 06:58:06;;;;;;;8.52;6.63;;;34.70;84.00;;;;;;5070632;28;20587;-63
2021/08/15 07:00:32;;;;;;;8.82;7.22;;;34.20;86.20;;;;;;5070966;28;20224;-62
2021/08/15 07:03:00;;;;;;;10.48;7.03;;;34.50;85.80;;;;;;5070961;28;20208;-62
2021/08/15 07:05:26;;;;;;;10.82;7.47;;;35.20;84.40;;;;;;5070713;28;20254;-63
2021/08/15 07:07:53;;;;;;;10.13;7.00;;;36.10;81.20;;;;;;5070560;28;20213;-62
2021/08/15 07:10:20;;;;;;;9.55;7.00;;;36.60;79.80;;;;;;5070410;28;20204;-62
2021/08/15 07:12:52;;;;;;;10.68;7.15;;;36.60;79.50;;;;;;5070566;28;20204;-62
2021/08/15 07:15:19;;;;;;;8.43;7.05;;;37.30;77.10;;;;;;5070882;28;20205;-62
2021/08/15 07:17:46;;;;;;;9.25;7.28;;;36.80;77.50;;;;;;5070906;28;20212;-62
2021/08/15 07:20:14;;;;;;;8.32;7.45;;;36.10;79.20;;;;;;5070425;28;20262;-62
2021/08/15 07:22:40;;;;;;;11.15;7.07;;;36.30;78.80;;;;;;5070561;28;20200;-62
2021/08/15 07:25:08;;;;;;;10.30;7.13;;;37.40;76.70;;;;;;5070434;28;20274;-62
2021/08/15 07:27:36;;;;;;;7.93;6.85;;;38.50;72.90;;;;;;5070630;28;20241;-62
2021/08/15 07:30:04;;;;;;;9.88;7.57;;;39.10;70.20;;;;;;5072172;28;20281;-61
2021/08/15 07:32:31;;;;;;;7.95;6.70;;;38.20;71.50;;;;;;5074878;28;20212;-60
2021/08/15 07:34:58;;;;;;;8.88;7.30;;;37.80;72.20;;;;;;5074711;28;20647;-61
2021/08/15 07:37:24;;;;;;;7.88;6.90;;;38.50;70.40;;;;;;5074552;28;20621;-60
2021/08/15 07:39:51;;;;;;;8.57;6.93;;;39.20;69.30;;;;;;5074857;28;20212;-61
2021/08/15 07:42:19;;;;;;;7.50;6.80;;;40.00;66.60;;;;;;5074620;28;20603;-62
2021/08/15 07:44:45;;;;;;;8.23;7.43;;;40.90;64.40;;;;;;5074451;28;20699;-58
2021/08/15 07:47:13;;;;;;;8.70;7.35;;;41.50;62.00;;;;;;5074114;28;20672;-60
2021/08/15 07:49:40;;;;;;;8.35;7.55;;;41.60;61.40;;;;;;5074204;28;20207;-60
2021/08/15 07:52:07;;;;;;;9.85;7.38;;;41.80;60.80;;;;;;5074332;28;20490;-60
2021/08/15 07:54:34;;;;;;;10.55;7.43;;;40.90;61.70;;;;;;5074006;28;20232;-60
2021/08/15 07:57:00;;;;;;;7.28;6.57;;;39.60;65.20;;;;;;5074339;28;20204;-60
2021/08/15 07:59:27;;;;;;;8.90;6.50;;;39.40;65.50;;;;;;5074201;28;20216;-61
2021/08/15 08:01:54;;;;;;;13.05;7.10;;;39.80;64.10;;;;;;5073976;28;20263;-61
2021/08/15 08:04:22;;;;;;;11.60;7.00;;;40.50;62.90;;;;;;5073887;28;20228;-60
2021/08/15 08:06:50;;;;;;;10.23;7.38;;;41.10;60.80;;;;;;5074030;28;20204;-61
2021/08/15 08:09:16;;;;;;;9.23;6.88;;;40.50;61.40;;;;;;5073965;28;20287;-61
2021/08/15 08:11:43;;;;;;;7.25;6.55;;;39.20;64.50;;;;;;5073890;28;20230;-61
2021/08/15 08:14:10;;;;;;;10.25;6.82;;;39.50;63.60;;;;;;5074054;28;20224;-61
2021/08/15 08:16:37;;;;;;;7.90;6.53;;;40.50;61.90;;;;;;5073934;28;20258;-61
2021/08/15 08:19:03;;;;;;;9.65;7.25;;;41.10;59.70;;;;;;5073777;28;20208;-61
2021/08/15 08:21:31;;;;;;;9.93;6.90;;;41.00;59.90;;;;;;5073965;28;20228;-61
2021/08/15 08:23:58;;;;;;;9.35;7.00;;;40.50;60.10;;;;;;5073892;28;20224;-60
2021/08/15 08:26:25;;;;;;;13.00;7.32;;;40.00;60.80;;;;;;5073735;28;20197;-62
2021/08/15 08:28:51;;;;;;;11.02;7.07;;;39.70;62.10;;;;;;5073519;28;20205;-60
2021/08/15 08:31:18;;;;;;;10.63;7.50;;;39.70;61.50;;;;;;5073717;28;20250;-60
2021/08/15 08:33:45;;;;;;;7.40;6.63;;;38.60;63.20;;;;;;5073172;28;20728;-61
2021/08/15 08:36:11;;;;;;;13.52;7.63;;;37.00;67.80;;;;;;5073390;28;20745;-61
2021/08/15 08:38:39;;;;;;;9.02;7.28;;;36.10;69.80;;;;;;5073441;28;20706;-60
2021/08/15 08:41:07;;;;;;;9.15;7.53;;;35.50;71.80;;;;;;5072764;28;20583;-60
2021/08/15 08:43:34;;;;;;;9.07;8.18;;;34.90;73.30;;;;;;5073326;28;20221;-61
2021/08/15 08:46:01;;;;;;;11.80;8.30;;;34.40;75.20;;;;;;5073231;28;20621;-60
2021/08/15 08:48:28;;;;;;;8.93;7.55;;;33.90;76.70;;;;;;5072951;28;20208;-60
2021/08/15 08:50:55;;;;;;;11.98;7.78;;;33.50;78.60;;;;;;5073380;28;20209;-61
2021/08/15 08:53:23;;;;;;;11.48;8.80;;;33.10;80.80;;;;;;5073264;28;20228;-61
2021/08/15 08:55:51;;;;;;;9.63;8.00;;;32.70;82.20;;;;;;5073146;28;20675;-60
2021/08/15 08:58:18;;;;;;;12.30;7.97;;;32.30;83.70;;;;;;5073298;28;20207;-60
2021/08/15 09:00:46;;;;;;;9.68;8.45;;;31.80;86.50;;;;;;5072928;28;20208;-60
2021/08/15 09:03:14;;;;;;;10.52;8.30;;;31.50;88.60;;;;;;5069492;28;20449;-59
2021/08/15 09:05:42;;;;;;;11.43;8.07;;;30.90;90.70;;;;;;5072911;28;20235;-58
2021/08/15 09:08:09;;;;;;;11.18;8.07;;;30.40;92.20;;;;;;5072731;28;20263;-59
2021/08/15 09:10:38;;;;;;;11.10;8.38;;;30.10;92.90;;;;;;5072766;28;20212;-59
2021/08/15 09:13:08;;;;;;;9.45;8.05;;;29.90;93.60;;;;;;5072701;28;20205;-60
2021/08/15 09:15:35;;;;;;;12.80;8.32;;;29.90;93.90;;;;;;5073081;28;20624;-56
2021/08/15 09:18:02;;;;;;;11.38;8.15;;;30.10;94.10;;;;;;5072987;28;20204;-59
2021/08/15 09:20:39;;;;;;;9.30;7.80;;;30.30;94.20;;;;;;5073126;28;20207;-57
2021/08/15 09:23:23;;;;;;;9.10;7.90;;;30.50;94.30;;;;;;5073064;28;20216;-59
2021/08/15 09:26:11;;;;;;;10.93;8.18;;;30.80;94.20;;;;;;5072711;28;20212;-59
2021/08/15 09:28:40;;;;;;;10.30;8.55;;;30.80;94.20;;;;;;5072511;28;20212;-58
2021/08/15 09:31:32;;;;;;;10.02;8.23;;;30.90;94.40;;;;;;5072396;28;20200;-58
2021/08/15 09:34:00;;;;;;;10.85;8.15;;;31.10;94.40;;;;;;5053733;28;20228;-58
2021/08/15 09:36:30;;;;;;;9.23;7.93;;;31.20;94.30;;;;;;5072124;28;20205;-57
2021/08/15 09:38:59;;;;;;;9.02;7.50;;;31.20;94.50;;;;;;5072208;28;20216;-61
2021/08/15 09:41:27;;;;;;;10.38;7.90;;;31.20;94.50;;;;;;5072077;28;20697;-59
2021/08/15 09:44:17;;;;;;;8.40;7.38;;;31.20;94.50;;;;;;5072128;28;20233;-59
2021/08/15 09:46:57;;;;;;;8.13;7.32;;;31.30;94.70;;;;;;5072047;28;20304;-59
2021/08/15 09:49:24;;;;;;;9.85;8.00;;;31.30;94.60;;;;;;5072139;28;20277;-60
2021/08/15 09:51:51;;;;;;;10.95;7.55;;;31.30;94.50;;;;;;5072125;28;20209;-62
2021/08/15 09:54:18;;;;;;;8.88;7.25;;;31.30;94.90;;;;;;5070990;28;20302;-62
2021/08/15 09:56:44;;;;;;;9.48;7.82;;;31.20;95.00;;;;;;5071946;28;20209;-63
2021/08/15 09:59:13;;;;;;;10.52;7.50;;;31.00;95.50;;;;;;5071417;28;20251;-63
2021/08/15 10:01:42;;;;;;;10.07;8.20;;;31.00;96.10;;;;;;5071747;28;20315;-57
2021/08/15 10:04:10;;;;;;;10.73;7.07;;;31.00;95.50;;;;;;5071554;28;20225;-57
2021/08/15 10:06:37;;;;;;;8.32;7.13;;;31.00;94.30;;;;;;5071899;28;20208;-56
2021/08/15 10:09:04;;;;;;;8.80;7.50;;;30.80;95.10;;;;;;5071511;28;20239;-56
2021/08/15 10:11:32;;;;;;;9.05;6.85;;;30.90;95.20;;;;;;5071758;28;20197;-58
2021/08/15 10:13:59;;;;;;;9.32;7.25;;;31.20;95.20;;;;;;5071370;28;20232;-56
2021/08/15 10:16:30;;;;;;;10.00;6.82;;;31.40;95.40;;;;;;5071826;28;20233;-57
2021/08/15 10:19:01;;;;;;;10.30;7.03;;;31.50;94.60;;;;;;5071635;28;20643;-58
2021/08/15 10:21:29;;;;;;;8.73;6.88;;;31.80;93.50;;;;;;5071532;28;20225;-56
2021/08/15 10:24:07;;;;;;;9.85;6.75;;;32.00;93.10;;;;;;5071459;28;20232;-58
2021/08/15 10:26:46;;;;;;;9.40;7.28;;;32.20;92.80;;;;;;5071342;28;20688;-59
2021/08/15 10:29:39;;;;;;;11.18;7.20;;;32.40;92.10;;;;;;5071521;28;20656;-58
2021/08/15 10:32:15;;;;;;;9.38;7.88;;;32.70;91.70;;;;;;5071221;28;20686;-59
2021/08/15 10:35:18;;;;;;;12.05;7.47;;;32.90;91.80;;;;;;5071129;28;20232;-57
2021/08/15 10:37:50;;;;;;;9.82;7.88;;;33.20;92.10;;;;;;5071530;28;20215;-58
2021/08/15 10:40:57;;;;;;;10.23;7.32;;;33.50;91.50;;;;;;5071545;28;20209;-57
2021/08/15 10:43:56;;;;;;;13.35;6.93;;;34.10;89.80;;;;;;5071159;28;20240;-58
2021/08/15 10:46:23;;;;;;;7.47;6.72;;;34.50;84.30;;;;;;5071051;28;20638;-58
2021/08/15 10:48:53;;;;;;;8.88;6.93;;;34.50;84.20;;;;;;5071158;28;20314;-59
2021/08/15 10:51:45;;;;;;;13.32;7.18;;;34.60;84.10;;;;;;5070927;28;20208;-57
2021/08/15 10:55:05;;;;;;;14.10;9.40;;;34.80;84.60;;;;;;5071129;28;20459;-59
2021/08/15 10:57:40;;;;;;;8.77;7.63;;;34.80;84.10;;;;;;5070919;28;20239;-59
2021/08/15 11:00:38;;;;;;;12.55;7.50;;;34.90;83.60;;;;;;5070953;28;20205;-58
2021/08/15 11:03:36;;;;;;;9.35;8.18;;;35.30;83.90;;;;;;5070554;28;20232;-59
2021/08/15 11:06:04;;;;;;;9.52;7.30;;;35.60;82.70;;;;;;5070559;28;20207;-59
2021/08/15 11:08:55;;;;;;;9.35;7.25;;;35.80;81.10;;;;;;5070837;28;20672;-59
2021/08/15 11:11:26;;;;;;;13.13;7.85;;;35.90;81.10;;;;;;5060304;28;20716;-59
2021/08/15 11:14:26;;;;;;;11.38;7.68;;;35.80;81.20;;;;;;5070372;28;20225;-59
2021/08/15 11:16:54;;;;;;;14.48;8.98;;;35.70;80.10;;;;;;5071041;28;20201;-59
2021/08/15 11:19:29;;;;;;;16.05;8.93;;;35.50;80.80;;;;;;5070781;28;20201;-60
2021/08/15 11:22:05;;;;;;;13.10;7.75;;;35.40;81.50;;;;;;5070560;28;20235;-59
2021/08/15 11:24:35;;;;;;;11.95;7.90;;;35.20;82.40;;;;;;5070410;28;20220;-57
2021/08/15 11:27:03;;;;;;;7.95;7.15;;;34.90;82.30;;;;;;5070877;28;20204;-57
2021/08/15 11:29:29;;;;;;;12.98;8.13;;;34.50;83.10;;;;;;5070934;28;20205;-59
2021/08/15 11:31:58;;;;;;;10.43;7.00;;;34.20;83.60;;;;;;5070894;28;20205;-58
2021/08/15 11:34:25;;;;;;;9.73;6.50;;;33.90;84.40;;;;;;5070561;28;20237;-59
2021/08/15 11:37:01;;;;;;;10.13;7.85;;;33.60;85.10;;;;;;5070746;28;20633;-60
2021/08/15 11:39:36;;;;;;;11.57;7.45;;;33.30;86.30;;;;;;5070594;28;20218;-58
2021/08/15 11:42:06;;;;;;;8.88;7.32;;;33.10;86.90;;;;;;5070513;28;20224;-60
2021/08/15 11:44:54;;;;;;;9.07;7.32;;;32.80;89.10;;;;;;5070678;28;20224;-59
2021/08/15 11:47:22;;;;;;;10.35;7.63;;;32.50;89.70;;;;;;5070593;28;20624;-59
2021/08/15 11:49:50;;;;;;;8.02;7.22;;;32.40;90.20;;;;;;5070400;28;20209;-59
2021/08/15 11:52:19;;;;;;;11.32;7.28;;;32.60;90.10;;;;;;5070626;28;20197;-61
2021/08/15 11:54:50;;;;;;;11.50;7.85;;;33.00;89.80;;;;;;5070365;28;20260;-58
2021/08/15 11:57:17;;;;;;;9.88;7.30;;;33.30;89.40;;;;;;5070685;28;20591;-62
2021/08/15 11:59:46;;;;;;;10.00;7.78;;;33.40;88.70;;;;;;5070376;28;20205;-59
2021/08/15 12:02:18;;;;;;;9.13;8.07;;;33.50;88.60;;;;;;5070351;28;20228;-61
2021/08/15 12:04:47;;;;;;;20.13;16.85;;;33.40;88.60;;;;;;5070374;28;20256;-59
2021/08/15 12:07:24;;;;;;;24.73;21.63;;;33.20;88.80;;;;;;5070713;28;20214;-59
2021/08/15 12:10:26;;;;;;;11.00;7.53;;;33.00;89.30;;;;;;5070225;28;20206;-58
2021/08/15 12:13:16;;;;;;;10.82;7.35;;;33.00;88.40;;;;;;5070115;28;20473;-59
2021/08/15 12:15:44;;;;;;;13.95;8.30;;;33.10;88.00;;;;;;5070138;28;20273;-60
2021/08/15 12:18:26;;;;;;;10.23;7.82;;;33.20;87.50;;;;;;5073233;28;20204;-59
2021/08/15 12:20:54;;;;;;;10.10;8.55;;;33.20;87.50;;;;;;5073692;28;20208;-58
2021/08/15 12:23:21;;;;;;;16.88;13.75;;;33.20;87.30;;;;;;5073484;28;20240;-59
2021/08/15 12:26:02;;;;;;;10.77;7.30;;;33.20;87.50;;;;;;5073927;28;20215;-59
2021/08/15 12:28:31;;;;;;;11.90;7.97;;;33.10;87.20;;;;;;5073553;28;20212;-58
2021/08/15 12:31:15;;;;;;;13.63;7.80;;;33.00;89.00;;;;;;5073597;28;20228;-59
2021/08/15 12:33:42;;;;;;;9.40;7.65;;;33.00;88.90;;;;;;5073423;28;20229;-59
2021/08/15 12:36:20;;;;;;;12.95;8.25;;;33.20;88.20;;;;;;5073768;28;20216;-58
2021/08/15 12:38:47;;;;;;;12.43;7.63;;;33.60;86.70;;;;;;5073477;28;20274;-57
2021/08/15 12:41:30;;;;;;;10.13;7.57;;;33.70;86.10;;;;;;5073378;28;20479;-58
2021/08/15 12:44:11;;;;;;;7.80;6.80;;;33.80;85.50;;;;;;5072772;28;20326;-59
2021/08/15 12:46:38;;;;;;;13.20;6.70;;;33.70;83.30;;;;;;5073237;28;20639;-59
2021/08/15 12:49:22;;;;;;;11.55;6.22;;;33.60;82.20;;;;;;5073205;28;20205;-59
2021/08/15 12:51:49;;;;;;;12.00;6.25;;;33.60;81.00;;;;;;5073154;28;20242;-61